sensor_id;sensor_type;location;lat;lon;timestamp;temperature;humidity
56538;DHT22;42435;53.292;6.000;2023-04-06T00:01:10;3.30;66.00
56538;DHT22;42435;53.292;6.000;2023-04-06T00:03:36;3.20;66.00
56538;DHT22;42435;53.292;6.000;2023-04-06T00:06:02;3.30;66.10
56538;DHT22;42435;53.292;6.000;2023-04-06T00:08:28;3.20;66.20
56538;DHT22;42435;53.292;6.000;2023-04-06T00:10:54;3.20;66.30
56538;DHT22;42435;53.292;6.000;2023-04-06T00:13:19;3.20;66.30
56538;DHT22;42435;53.292;6.000;2023-04-06T00:15:45;3.10;66.40
56538;DHT22;42435;53.292;6.000;2023-04-06T00:18:11;3.10;66.50
56538;DHT22;42435;53.292;6.000;2023-04-06T00:20:36;3.10;66.50
56538;DHT22;42435;53.292;6.000;2023-04-06T00:23:02;3.00;66.50
56538;DHT22;42435;53.292;6.000;2023-04-06T00:25:27;3.00;66.60
56538;DHT22;42435;53.292;6.000;2023-04-06T00:27:53;3.00;66.60
56538;DHT22;42435;53.292;6.000;2023-04-06T00:30:19;3.00;66.70
56538;DHT22;42435;53.292;6.000;2023-04-06T00:32:44;3.00;66.70
56538;DHT22;42435;53.292;6.000;2023-04-06T00:35:10;3.00;66.70
56538;DHT22;42435;53.292;6.000;2023-04-06T00:37:39;2.90;66.60
56538;DHT22;42435;53.292;6.000;2023-04-06T00:40:05;2.90;66.60
56538;DHT22;42435;53.292;6.000;2023-04-06T00:42:34;2.90;66.60
56538;DHT22;42435;53.292;6.000;2023-04-06T00:45:03;2.90;66.70
56538;DHT22;42435;53.292;6.000;2023-04-06T00:47:28;2.90;66.60
56538;DHT22;42435;53.292;6.000;2023-04-06T00:49:56;2.90;66.50
56538;DHT22;42435;53.292;6.000;2023-04-06T00:52:22;2.90;66.50
56538;DHT22;42435;53.292;6.000;2023-04-06T00:54:48;2.90;66.50
56538;DHT22;42435;53.292;6.000;2023-04-06T00:57:14;2.90;66.50
56538;DHT22;42435;53.292;6.000;2023-04-06T00:59:40;2.90;66.40
56538;DHT22;42435;53.292;6.000;2023-04-06T01:02:06;2.80;66.50
56538;DHT22;42435;53.292;6.000;2023-04-06T01:04:33;2.80;66.50
56538;DHT22;42435;53.292;6.000;2023-04-06T01:06:59;2.80;66.40
56538;DHT22;42435;53.292;6.000;2023-04-06T01:09:24;2.80;66.30
56538;DHT22;42435;53.292;6.000;2023-04-06T01:11:50;2.80;66.30
56538;DHT22;42435;53.292;6.000;2023-04-06T01:14:16;2.80;66.30
56538;DHT22;42435;53.292;6.000;2023-04-06T01:16:42;2.80;66.40
56538;DHT22;42435;53.292;6.000;2023-04-06T01:19:09;2.80;66.30
56538;DHT22;42435;53.292;6.000;2023-04-06T01:21:36;2.80;66.20
56538;DHT22;42435;53.292;6.000;2023-04-06T01:24:02;2.70;66.20
56538;DHT22;42435;53.292;6.000;2023-04-06T01:26:27;2.70;66.20
56538;DHT22;42435;53.292;6.000;2023-04-06T01:28:55;2.70;66.20
56538;DHT22;42435;53.292;6.000;2023-04-06T01:31:21;2.70;66.20
56538;DHT22;42435;53.292;6.000;2023-04-06T01:33:46;2.70;66.10
56538;DHT22;42435;53.292;6.000;2023-04-06T01:36:12;2.70;66.10
56538;DHT22;42435;53.292;6.000;2023-04-06T01:38:41;2.70;66.10
56538;DHT22;42435;53.292;6.000;2023-04-06T01:41:07;2.70;66.20
56538;DHT22;42435;53.292;6.000;2023-04-06T01:43:33;2.60;66.20
56538;DHT22;42435;53.292;6.000;2023-04-06T01:45:59;2.60;66.10
56538;DHT22;42435;53.292;6.000;2023-04-06T01:48:25;2.60;66.10
56538;DHT22;42435;53.292;6.000;2023-04-06T01:50:51;2.60;66.20
56538;DHT22;42435;53.292;6.000;2023-04-06T01:53:16;2.50;66.20
56538;DHT22;42435;53.292;6.000;2023-04-06T01:55:42;2.50;66.20
56538;DHT22;42435;53.292;6.000;2023-04-06T01:58:08;2.50;66.30
56538;DHT22;42435;53.292;6.000;2023-04-06T02:00:34;2.50;66.30
56538;DHT22;42435;53.292;6.000;2023-04-06T02:03:00;2.40;66.30
56538;DHT22;42435;53.292;6.000;2023-04-06T02:05:26;2.50;66.20
56538;DHT22;42435;53.292;6.000;2023-04-06T02:07:52;2.40;66.20
56538;DHT22;42435;53.292;6.000;2023-04-06T02:10:17;2.50;66.20
56538;DHT22;42435;53.292;6.000;2023-04-06T02:12:43;2.40;66.10
56538;DHT22;42435;53.292;6.000;2023-04-06T02:15:09;2.40;66.10
56538;DHT22;42435;53.292;6.000;2023-04-06T02:17:35;2.40;66.10
56538;DHT22;42435;53.292;6.000;2023-04-06T02:20:00;2.40;66.10
56538;DHT22;42435;53.292;6.000;2023-04-06T02:22:29;2.40;66.10
56538;DHT22;42435;53.292;6.000;2023-04-06T02:24:54;2.40;66.10
56538;DHT22;42435;53.292;6.000;2023-04-06T02:27:20;2.40;66.00
56538;DHT22;42435;53.292;6.000;2023-04-06T02:29:46;2.40;66.00
56538;DHT22;42435;53.292;6.000;2023-04-06T02:32:11;2.40;66.00
56538;DHT22;42435;53.292;6.000;2023-04-06T02:34:37;2.40;66.00
56538;DHT22;42435;53.292;6.000;2023-04-06T02:37:03;2.40;66.10
56538;DHT22;42435;53.292;6.000;2023-04-06T02:39:28;2.30;66.20
56538;DHT22;42435;53.292;6.000;2023-04-06T02:41:54;2.30;66.20
56538;DHT22;42435;53.292;6.000;2023-04-06T02:44:20;2.30;66.20
56538;DHT22;42435;53.292;6.000;2023-04-06T02:46:46;2.30;66.10
56538;DHT22;42435;53.292;6.000;2023-04-06T02:49:11;2.30;66.10
56538;DHT22;42435;53.292;6.000;2023-04-06T02:51:37;2.30;66.00
56538;DHT22;42435;53.292;6.000;2023-04-06T02:54:02;2.30;65.90
56538;DHT22;42435;53.292;6.000;2023-04-06T02:56:28;2.30;65.90
56538;DHT22;42435;53.292;6.000;2023-04-06T02:58:53;2.30;65.90
56538;DHT22;42435;53.292;6.000;2023-04-06T03:01:19;2.20;65.90
56538;DHT22;42435;53.292;6.000;2023-04-06T03:03:45;2.30;66.00
56538;DHT22;42435;53.292;6.000;2023-04-06T03:06:11;2.20;66.00
56538;DHT22;42435;53.292;6.000;2023-04-06T03:08:36;2.30;66.00
56538;DHT22;42435;53.292;6.000;2023-04-06T03:11:02;2.30;66.00
56538;DHT22;42435;53.292;6.000;2023-04-06T03:13:27;2.20;66.10
56538;DHT22;42435;53.292;6.000;2023-04-06T03:15:53;2.20;66.10
56538;DHT22;42435;53.292;6.000;2023-04-06T03:18:22;2.20;66.00
56538;DHT22;42435;53.292;6.000;2023-04-06T03:20:48;2.20;66.10
56538;DHT22;42435;53.292;6.000;2023-04-06T03:23:14;2.20;66.10
56538;DHT22;42435;53.292;6.000;2023-04-06T03:25:42;2.20;66.10
56538;DHT22;42435;53.292;6.000;2023-04-06T03:28:08;2.20;66.10
56538;DHT22;42435;53.292;6.000;2023-04-06T03:30:34;2.20;66.10
56538;DHT22;42435;53.292;6.000;2023-04-06T03:32:59;2.20;66.10
56538;DHT22;42435;53.292;6.000;2023-04-06T03:35:25;2.20;66.10
56538;DHT22;42435;53.292;6.000;2023-04-06T03:37:51;2.20;66.10
56538;DHT22;42435;53.292;6.000;2023-04-06T03:40:16;2.20;66.00
56538;DHT22;42435;53.292;6.000;2023-04-06T03:42:42;2.20;66.10
56538;DHT22;42435;53.292;6.000;2023-04-06T03:45:08;2.20;66.20
56538;DHT22;42435;53.292;6.000;2023-04-06T03:47:34;2.20;66.20
56538;DHT22;42435;53.292;6.000;2023-04-06T03:50:02;2.20;66.30
56538;DHT22;42435;53.292;6.000;2023-04-06T03:52:28;2.10;66.30
56538;DHT22;42435;53.292;6.000;2023-04-06T03:54:54;2.10;66.40
56538;DHT22;42435;53.292;6.000;2023-04-06T03:57:19;2.10;66.50
56538;DHT22;42435;53.292;6.000;2023-04-06T03:59:45;2.10;66.40
56538;DHT22;42435;53.292;6.000;2023-04-06T04:02:11;2.10;66.40
56538;DHT22;42435;53.292;6.000;2023-04-06T04:04:36;2.00;66.50
56538;DHT22;42435;53.292;6.000;2023-04-06T04:07:03;2.00;66.50
56538;DHT22;42435;53.292;6.000;2023-04-06T04:09:29;2.00;66.40
56538;DHT22;42435;53.292;6.000;2023-04-06T04:11:54;2.00;66.50
56538;DHT22;42435;53.292;6.000;2023-04-06T04:14:20;2.00;66.40
56538;DHT22;42435;53.292;6.000;2023-04-06T04:16:46;1.90;66.50
56538;DHT22;42435;53.292;6.000;2023-04-06T04:19:12;1.90;66.40
56538;DHT22;42435;53.292;6.000;2023-04-06T04:21:46;1.90;66.50
56538;DHT22;42435;53.292;6.000;2023-04-06T04:24:12;1.90;66.60
56538;DHT22;42435;53.292;6.000;2023-04-06T04:26:39;1.80;66.50
56538;DHT22;42435;53.292;6.000;2023-04-06T04:29:05;1.80;66.50
56538;DHT22;42435;53.292;6.000;2023-04-06T04:31:31;1.80;66.50
56538;DHT22;42435;53.292;6.000;2023-04-06T04:33:57;1.80;66.50
56538;DHT22;42435;53.292;6.000;2023-04-06T04:36:23;1.80;66.50
56538;DHT22;42435;53.292;6.000;2023-04-06T04:38:54;1.80;66.60
56538;DHT22;42435;53.292;6.000;2023-04-06T04:41:19;1.80;66.70
56538;DHT22;42435;53.292;6.000;2023-04-06T04:43:45;1.80;66.70
56538;DHT22;42435;53.292;6.000;2023-04-06T04:46:11;1.80;66.60
56538;DHT22;42435;53.292;6.000;2023-04-06T04:48:36;1.80;66.60
56538;DHT22;42435;53.292;6.000;2023-04-06T04:51:03;1.70;66.60
56538;DHT22;42435;53.292;6.000;2023-04-06T04:53:29;1.70;66.60
56538;DHT22;42435;53.292;6.000;2023-04-06T04:55:56;1.80;66.60
56538;DHT22;42435;53.292;6.000;2023-04-06T04:58:24;1.80;66.70
56538;DHT22;42435;53.292;6.000;2023-04-06T05:00:53;1.80;66.70
56538;DHT22;42435;53.292;6.000;2023-04-06T05:03:21;1.80;66.70
56538;DHT22;42435;53.292;6.000;2023-04-06T05:05:48;1.80;66.70
56538;DHT22;42435;53.292;6.000;2023-04-06T05:08:13;1.80;66.70
56538;DHT22;42435;53.292;6.000;2023-04-06T05:10:39;1.90;66.70
56538;DHT22;42435;53.292;6.000;2023-04-06T05:13:08;1.90;66.70
56538;DHT22;42435;53.292;6.000;2023-04-06T05:15:36;1.90;66.60
56538;DHT22;42435;53.292;6.000;2023-04-06T05:18:04;1.90;66.70
56538;DHT22;42435;53.292;6.000;2023-04-06T05:20:30;1.90;66.70
56538;DHT22;42435;53.292;6.000;2023-04-06T05:22:56;1.90;66.60
56538;DHT22;42435;53.292;6.000;2023-04-06T05:25:22;1.90;66.60
56538;DHT22;42435;53.292;6.000;2023-04-06T05:27:47;2.00;66.60
56538;DHT22;42435;53.292;6.000;2023-04-06T05:30:16;1.90;66.60
56538;DHT22;42435;53.292;6.000;2023-04-06T05:32:42;2.00;66.60
56538;DHT22;42435;53.292;6.000;2023-04-06T05:35:09;2.00;66.50
56538;DHT22;42435;53.292;6.000;2023-04-06T05:37:35;2.00;66.60
56538;DHT22;42435;53.292;6.000;2023-04-06T05:40:01;2.10;66.60
56538;DHT22;42435;53.292;6.000;2023-04-06T05:42:26;2.10;66.60
56538;DHT22;42435;53.292;6.000;2023-04-06T05:44:52;2.10;66.60
56538;DHT22;42435;53.292;6.000;2023-04-06T05:47:18;2.20;66.60
56538;DHT22;42435;53.292;6.000;2023-04-06T05:49:44;2.20;66.50
56538;DHT22;42435;53.292;6.000;2023-04-06T05:52:09;2.30;66.50
56538;DHT22;42435;53.292;6.000;2023-04-06T05:54:36;2.40;66.40
56538;DHT22;42435;53.292;6.000;2023-04-06T05:57:03;2.40;66.30
56538;DHT22;42435;53.292;6.000;2023-04-06T05:59:32;2.50;66.30
56538;DHT22;42435;53.292;6.000;2023-04-06T06:01:57;2.50;66.20
56538;DHT22;42435;53.292;6.000;2023-04-06T06:04:23;2.50;66.20
56538;DHT22;42435;53.292;6.000;2023-04-06T06:06:48;2.60;66.20
56538;DHT22;42435;53.292;6.000;2023-04-06T06:09:14;2.70;66.20
56538;DHT22;42435;53.292;6.000;2023-04-06T06:11:40;2.80;66.10
56538;DHT22;42435;53.292;6.000;2023-04-06T06:14:06;2.90;66.00
56538;DHT22;42435;53.292;6.000;2023-04-06T06:16:32;3.00;65.90
56538;DHT22;42435;53.292;6.000;2023-04-06T06:19:01;3.20;65.80
56538;DHT22;42435;53.292;6.000;2023-04-06T06:21:26;3.40;65.60
56538;DHT22;42435;53.292;6.000;2023-04-06T06:23:52;3.60;65.40
56538;DHT22;42435;53.292;6.000;2023-04-06T06:26:19;3.80;65.10
56538;DHT22;42435;53.292;6.000;2023-04-06T06:28:45;3.90;65.00
56538;DHT22;42435;53.292;6.000;2023-04-06T06:31:10;4.10;64.80
56538;DHT22;42435;53.292;6.000;2023-04-06T06:33:36;4.30;64.60
56538;DHT22;42435;53.292;6.000;2023-04-06T06:36:03;4.50;64.40
56538;DHT22;42435;53.292;6.000;2023-04-06T06:38:29;4.70;64.00
56538;DHT22;42435;53.292;6.000;2023-04-06T06:40:54;4.80;63.80
56538;DHT22;42435;53.292;6.000;2023-04-06T06:43:20;5.10;63.50
56538;DHT22;42435;53.292;6.000;2023-04-06T06:45:46;5.20;63.00
56538;DHT22;42435;53.292;6.000;2023-04-06T06:48:11;5.40;62.70
56538;DHT22;42435;53.292;6.000;2023-04-06T06:50:37;5.50;62.50
56538;DHT22;42435;53.292;6.000;2023-04-06T06:53:03;5.70;62.30
56538;DHT22;42435;53.292;6.000;2023-04-06T06:55:28;5.90;62.20
56538;DHT22;42435;53.292;6.000;2023-04-06T06:57:54;6.00;61.90
56538;DHT22;42435;53.292;6.000;2023-04-06T07:00:20;6.30;61.40
56538;DHT22;42435;53.292;6.000;2023-04-06T07:02:47;6.50;61.10
56538;DHT22;42435;53.292;6.000;2023-04-06T07:05:13;6.70;60.70
56538;DHT22;42435;53.292;6.000;2023-04-06T07:07:38;6.80;60.50
56538;DHT22;42435;53.292;6.000;2023-04-06T07:10:07;6.90;60.30
56538;DHT22;42435;53.292;6.000;2023-04-06T07:12:33;6.90;60.20
56538;DHT22;42435;53.292;6.000;2023-04-06T07:15:00;7.10;60.00
56538;DHT22;42435;53.292;6.000;2023-04-06T07:17:26;7.20;59.70
56538;DHT22;42435;53.292;6.000;2023-04-06T07:19:51;7.40;59.40
56538;DHT22;42435;53.292;6.000;2023-04-06T07:22:18;7.60;59.00
56538;DHT22;42435;53.292;6.000;2023-04-06T07:24:43;7.80;58.50
56538;DHT22;42435;53.292;6.000;2023-04-06T07:27:09;8.00;58.10
56538;DHT22;42435;53.292;6.000;2023-04-06T07:29:38;8.20;57.70
56538;DHT22;42435;53.292;6.000;2023-04-06T07:32:04;8.30;57.20
56538;DHT22;42435;53.292;6.000;2023-04-06T07:34:29;8.50;57.10
56538;DHT22;42435;53.292;6.000;2023-04-06T07:36:55;8.60;56.60
56538;DHT22;42435;53.292;6.000;2023-04-06T07:39:22;8.80;56.20
56538;DHT22;42435;53.292;6.000;2023-04-06T07:41:47;9.00;55.50
56538;DHT22;42435;53.292;6.000;2023-04-06T07:44:13;9.20;54.90
56538;DHT22;42435;53.292;6.000;2023-04-06T07:46:38;9.40;54.70
56538;DHT22;42435;53.292;6.000;2023-04-06T07:49:04;9.70;53.80
56538;DHT22;42435;53.292;6.000;2023-04-06T07:51:35;9.90;53.00
56538;DHT22;42435;53.292;6.000;2023-04-06T07:54:00;10.00;52.10
56538;DHT22;42435;53.292;6.000;2023-04-06T07:56:29;10.10;51.50
56538;DHT22;42435;53.292;6.000;2023-04-06T07:58:56;10.30;50.60
56538;DHT22;42435;53.292;6.000;2023-04-06T08:01:23;10.40;50.80
56538;DHT22;42435;53.292;6.000;2023-04-06T08:03:49;10.70;50.60
56538;DHT22;42435;53.292;6.000;2023-04-06T08:06:16;10.90;50.00
56538;DHT22;42435;53.292;6.000;2023-04-06T08:08:42;11.00;49.50
56538;DHT22;42435;53.292;6.000;2023-04-06T08:11:08;11.20;48.80
56538;DHT22;42435;53.292;6.000;2023-04-06T08:13:34;11.30;48.10
56538;DHT22;42435;53.292;6.000;2023-04-06T08:15:59;11.40;48.00
56538;DHT22;42435;53.292;6.000;2023-04-06T08:18:34;11.50;47.70
56538;DHT22;42435;53.292;6.000;2023-04-06T08:21:00;11.60;47.20
56538;DHT22;42435;53.292;6.000;2023-04-06T08:23:26;11.70;47.30
56538;DHT22;42435;53.292;6.000;2023-04-06T08:25:53;11.70;46.90
56538;DHT22;42435;53.292;6.000;2023-04-06T08:28:20;11.60;46.20
56538;DHT22;42435;53.292;6.000;2023-04-06T08:30:46;11.60;45.80
56538;DHT22;42435;53.292;6.000;2023-04-06T08:33:12;11.60;45.90
56538;DHT22;42435;53.292;6.000;2023-04-06T08:35:37;11.80;46.00
56538;DHT22;42435;53.292;6.000;2023-04-06T08:38:03;11.90;45.80
56538;DHT22;42435;53.292;6.000;2023-04-06T08:40:29;12.00;45.60
56538;DHT22;42435;53.292;6.000;2023-04-06T08:42:56;12.20;45.20
56538;DHT22;42435;53.292;6.000;2023-04-06T08:45:22;12.30;45.00
56538;DHT22;42435;53.292;6.000;2023-04-06T08:47:51;12.40;45.00
56538;DHT22;42435;53.292;6.000;2023-04-06T08:50:18;12.40;44.40
56538;DHT22;42435;53.292;6.000;2023-04-06T08:52:47;12.40;44.30
56538;DHT22;42435;53.292;6.000;2023-04-06T08:55:13;12.50;44.30
56538;DHT22;42435;53.292;6.000;2023-04-06T08:57:40;12.50;44.40
56538;DHT22;42435;53.292;6.000;2023-04-06T09:00:09;12.50;44.50
56538;DHT22;42435;53.292;6.000;2023-04-06T09:02:38;12.50;44.80
56538;DHT22;42435;53.292;6.000;2023-04-06T09:05:04;12.60;44.80
56538;DHT22;42435;53.292;6.000;2023-04-06T09:07:30;12.70;44.40
56538;DHT22;42435;53.292;6.000;2023-04-06T09:09:56;12.70;44.10
56538;DHT22;42435;53.292;6.000;2023-04-06T09:12:30;12.70;43.80
56538;DHT22;42435;53.292;6.000;2023-04-06T09:14:59;12.80;43.50
56538;DHT22;42435;53.292;6.000;2023-04-06T09:17:26;12.90;43.80
56538;DHT22;42435;53.292;6.000;2023-04-06T09:19:53;13.00;43.70
56538;DHT22;42435;53.292;6.000;2023-04-06T09:22:19;13.20;43.20
56538;DHT22;42435;53.292;6.000;2023-04-06T09:24:52;13.20;42.80
56538;DHT22;42435;53.292;6.000;2023-04-06T09:27:29;13.30;42.80
56538;DHT22;42435;53.292;6.000;2023-04-06T09:30:10;13.40;43.10
56538;DHT22;42435;53.292;6.000;2023-04-06T09:32:52;13.60;42.80
56538;DHT22;42435;53.292;6.000;2023-04-06T09:35:19;13.70;42.50
56538;DHT22;42435;53.292;6.000;2023-04-06T09:37:52;13.80;42.50
56538;DHT22;42435;53.292;6.000;2023-04-06T09:40:18;13.90;42.20
56538;DHT22;42435;53.292;6.000;2023-04-06T09:42:50;14.20;42.40
56538;DHT22;42435;53.292;6.000;2023-04-06T09:45:18;14.40;42.10
56538;DHT22;42435;53.292;6.000;2023-04-06T09:47:45;14.50;41.90
56538;DHT22;42435;53.292;6.000;2023-04-06T09:50:12;14.70;41.50
56538;DHT22;42435;53.292;6.000;2023-04-06T09:52:46;14.80;41.30
56538;DHT22;42435;53.292;6.000;2023-04-06T09:55:34;14.90;40.70
56538;DHT22;42435;53.292;6.000;2023-04-06T09:58:13;15.00;40.90
56538;DHT22;42435;53.292;6.000;2023-04-06T10:01:06;15.30;40.60
56538;DHT22;42435;53.292;6.000;2023-04-06T10:06:31;15.60;39.80
56538;DHT22;42435;53.292;6.000;2023-04-06T10:08:59;15.70;39.60
56538;DHT22;42435;53.292;6.000;2023-04-06T10:11:25;15.80;39.60
56538;DHT22;42435;53.292;6.000;2023-04-06T10:13:51;15.90;39.40
56538;DHT22;42435;53.292;6.000;2023-04-06T10:16:17;16.10;38.40
56538;DHT22;42435;53.292;6.000;2023-04-06T10:18:47;16.20;38.20
56538;DHT22;42435;53.292;6.000;2023-04-06T10:21:19;16.20;37.40
56538;DHT22;42435;53.292;6.000;2023-04-06T10:23:59;16.20;37.60
56538;DHT22;42435;53.292;6.000;2023-04-06T10:26:27;16.10;37.80
56538;DHT22;42435;53.292;6.000;2023-04-06T10:28:55;16.00;38.00
56538;DHT22;42435;53.292;6.000;2023-04-06T10:31:25;16.00;38.10
56538;DHT22;42435;53.292;6.000;2023-04-06T10:34:02;16.00;37.80
56538;DHT22;42435;53.292;6.000;2023-04-06T10:36:32;15.90;37.50
56538;DHT22;42435;53.292;6.000;2023-04-06T10:39:03;15.70;37.60
56538;DHT22;42435;53.292;6.000;2023-04-06T10:41:41;15.60;37.80
56538;DHT22;42435;53.292;6.000;2023-04-06T10:44:07;15.60;37.80
56538;DHT22;42435;53.292;6.000;2023-04-06T10:46:33;15.60;38.10
56538;DHT22;42435;53.292;6.000;2023-04-06T10:49:10;15.70;38.20
56538;DHT22;42435;53.292;6.000;2023-04-06T10:51:38;15.60;38.00
56538;DHT22;42435;53.292;6.000;2023-04-06T10:54:06;15.50;38.00
56538;DHT22;42435;53.292;6.000;2023-04-06T10:56:32;15.60;38.00
56538;DHT22;42435;53.292;6.000;2023-04-06T10:59:02;15.50;37.90
56538;DHT22;42435;53.292;6.000;2023-04-06T11:01:28;15.40;38.00
56538;DHT22;42435;53.292;6.000;2023-04-06T11:03:55;15.40;37.90
56538;DHT22;42435;53.292;6.000;2023-04-06T11:06:22;15.30;37.70
56538;DHT22;42435;53.292;6.000;2023-04-06T11:08:49;15.30;37.80
56538;DHT22;42435;53.292;6.000;2023-04-06T11:11:16;15.20;38.10
56538;DHT22;42435;53.292;6.000;2023-04-06T11:14:02;15.10;37.90
56538;DHT22;42435;53.292;6.000;2023-04-06T11:16:31;15.10;38.30
56538;DHT22;42435;53.292;6.000;2023-04-06T11:19:02;15.10;38.30
56538;DHT22;42435;53.292;6.000;2023-04-06T11:21:36;15.20;38.20
56538;DHT22;42435;53.292;6.000;2023-04-06T11:26:43;15.20;38.30
56538;DHT22;42435;53.292;6.000;2023-04-06T11:29:10;15.20;38.40
56538;DHT22;42435;53.292;6.000;2023-04-06T11:31:40;15.20;38.50
56538;DHT22;42435;53.292;6.000;2023-04-06T11:34:11;15.20;38.40
56538;DHT22;42435;53.292;6.000;2023-04-06T11:36:40;15.20;38.70
56538;DHT22;42435;53.292;6.000;2023-04-06T11:39:06;15.30;38.80
56538;DHT22;42435;53.292;6.000;2023-04-06T11:41:33;15.30;38.50
56538;DHT22;42435;53.292;6.000;2023-04-06T11:44:03;15.20;38.40
56538;DHT22;42435;53.292;6.000;2023-04-06T11:46:33;15.20;38.60
56538;DHT22;42435;53.292;6.000;2023-04-06T11:49:00;15.20;38.60
56538;DHT22;42435;53.292;6.000;2023-04-06T11:51:27;15.30;38.90
56538;DHT22;42435;53.292;6.000;2023-04-06T11:53:53;15.30;39.00
56538;DHT22;42435;53.292;6.000;2023-04-06T11:56:28;15.30;39.20
56538;DHT22;42435;53.292;6.000;2023-04-06T11:58:56;15.40;39.30
56538;DHT22;42435;53.292;6.000;2023-04-06T12:01:22;15.40;39.10
56538;DHT22;42435;53.292;6.000;2023-04-06T12:03:47;15.40;39.20
56538;DHT22;42435;53.292;6.000;2023-04-06T12:06:14;15.30;39.20
56538;DHT22;42435;53.292;6.000;2023-04-06T12:08:40;15.20;39.30
56538;DHT22;42435;53.292;6.000;2023-04-06T12:11:06;15.10;39.50
56538;DHT22;42435;53.292;6.000;2023-04-06T12:13:34;15.00;39.60
56538;DHT22;42435;53.292;6.000;2023-04-06T12:16:00;14.90;39.80
56538;DHT22;42435;53.292;6.000;2023-04-06T12:18:26;14.70;39.90
56538;DHT22;42435;53.292;6.000;2023-04-06T12:20:52;14.60;40.20
56538;DHT22;42435;53.292;6.000;2023-04-06T12:23:19;14.50;40.40
56538;DHT22;42435;53.292;6.000;2023-04-06T12:25:45;14.50;40.60
56538;DHT22;42435;53.292;6.000;2023-04-06T12:28:11;14.60;40.80
56538;DHT22;42435;53.292;6.000;2023-04-06T12:30:37;14.60;40.90
56538;DHT22;42435;53.292;6.000;2023-04-06T12:33:03;14.60;41.00
56538;DHT22;42435;53.292;6.000;2023-04-06T12:35:28;14.70;41.30
56538;DHT22;42435;53.292;6.000;2023-04-06T12:37:54;14.80;41.40
56538;DHT22;42435;53.292;6.000;2023-04-06T12:40:20;14.90;41.50
56538;DHT22;42435;53.292;6.000;2023-04-06T12:42:46;14.90;41.70
56538;DHT22;42435;53.292;6.000;2023-04-06T12:45:12;14.90;41.60
56538;DHT22;42435;53.292;6.000;2023-04-06T12:47:38;15.00;41.50
56538;DHT22;42435;53.292;6.000;2023-04-06T12:50:05;14.90;41.50
56538;DHT22;42435;53.292;6.000;2023-04-06T12:52:31;14.90;41.70
56538;DHT22;42435;53.292;6.000;2023-04-06T12:54:58;14.90;42.00
56538;DHT22;42435;53.292;6.000;2023-04-06T12:57:25;14.80;42.40
56538;DHT22;42435;53.292;6.000;2023-04-06T12:59:51;14.80;42.70
56538;DHT22;42435;53.292;6.000;2023-04-06T13:02:20;14.80;42.80
56538;DHT22;42435;53.292;6.000;2023-04-06T13:04:47;14.80;42.90
56538;DHT22;42435;53.292;6.000;2023-04-06T13:07:13;14.90;42.70
56538;DHT22;42435;53.292;6.000;2023-04-06T13:09:39;14.80;42.70
56538;DHT22;42435;53.292;6.000;2023-04-06T13:12:08;14.80;42.80
56538;DHT22;42435;53.292;6.000;2023-04-06T13:14:39;14.70;42.60
56538;DHT22;42435;53.292;6.000;2023-04-06T13:17:11;14.60;42.80
56538;DHT22;42435;53.292;6.000;2023-04-06T13:19:36;14.50;43.70
56538;DHT22;42435;53.292;6.000;2023-04-06T13:22:02;14.60;44.30
56538;DHT22;42435;53.292;6.000;2023-04-06T13:24:28;14.70;44.90
56538;DHT22;42435;53.292;6.000;2023-04-06T13:26:53;14.80;45.50
56538;DHT22;42435;53.292;6.000;2023-04-06T13:29:19;14.80;46.30
56538;DHT22;42435;53.292;6.000;2023-04-06T13:31:46;14.80;47.10
56538;DHT22;42435;53.292;6.000;2023-04-06T13:34:11;14.80;47.90
56538;DHT22;42435;53.292;6.000;2023-04-06T13:36:37;14.90;48.20
56538;DHT22;42435;53.292;6.000;2023-04-06T13:39:03;14.90;48.60
56538;DHT22;42435;53.292;6.000;2023-04-06T13:41:29;14.90;48.80
56538;DHT22;42435;53.292;6.000;2023-04-06T13:43:54;14.80;48.80
56538;DHT22;42435;53.292;6.000;2023-04-06T13:46:21;14.70;48.90
56538;DHT22;42435;53.292;6.000;2023-04-06T13:48:49;14.60;49.10
56538;DHT22;42435;53.292;6.000;2023-04-06T13:51:15;14.50;49.70
56538;DHT22;42435;53.292;6.000;2023-04-06T13:53:41;14.40;50.30
56538;DHT22;42435;53.292;6.000;2023-04-06T13:56:09;14.40;50.80
56538;DHT22;42435;53.292;6.000;2023-04-06T13:58:38;14.30;51.30
56538;DHT22;42435;53.292;6.000;2023-04-06T14:01:07;14.20;51.50
56538;DHT22;42435;53.292;6.000;2023-04-06T14:03:35;14.00;52.40
56538;DHT22;42435;53.292;6.000;2023-04-06T14:06:13;13.80;53.20
56538;DHT22;42435;53.292;6.000;2023-04-06T14:08:39;13.60;54.70
56538;DHT22;42435;53.292;6.000;2023-04-06T14:11:05;13.40;54.70
56538;DHT22;42435;53.292;6.000;2023-04-06T14:13:33;13.30;55.40
56538;DHT22;42435;53.292;6.000;2023-04-06T14:15:59;13.20;56.30
56538;DHT22;42435;53.292;6.000;2023-04-06T14:18:25;12.90;57.00
56538;DHT22;42435;53.292;6.000;2023-04-06T14:20:54;12.80;57.60
56538;DHT22;42435;53.292;6.000;2023-04-06T14:23:24;12.70;58.40
56538;DHT22;42435;53.292;6.000;2023-04-06T14:26:08;12.60;58.80
56538;DHT22;42435;53.292;6.000;2023-04-06T14:28:35;12.50;59.70
56538;DHT22;42435;53.292;6.000;2023-04-06T14:31:02;12.40;59.50
56538;DHT22;42435;53.292;6.000;2023-04-06T14:33:34;12.20;59.70
56538;DHT22;42435;53.292;6.000;2023-04-06T14:36:03;12.00;60.10
56538;DHT22;42435;53.292;6.000;2023-04-06T14:38:29;12.00;61.00
56538;DHT22;42435;53.292;6.000;2023-04-06T14:40:54;11.90;61.40
56538;DHT22;42435;53.292;6.000;2023-04-06T14:43:21;11.80;61.90
56538;DHT22;42435;53.292;6.000;2023-04-06T14:45:47;11.80;62.10
56538;DHT22;42435;53.292;6.000;2023-04-06T14:48:13;11.70;62.50
56538;DHT22;42435;53.292;6.000;2023-04-06T14:50:41;11.60;62.70
56538;DHT22;42435;53.292;6.000;2023-04-06T14:53:11;11.50;62.90
56538;DHT22;42435;53.292;6.000;2023-04-06T14:55:40;11.40;63.10
56538;DHT22;42435;53.292;6.000;2023-04-06T14:58:06;11.40;63.60
56538;DHT22;42435;53.292;6.000;2023-04-06T15:00:32;11.30;63.60
56538;DHT22;42435;53.292;6.000;2023-04-06T15:02:57;11.20;64.00
56538;DHT22;42435;53.292;6.000;2023-04-06T15:05:23;11.10;64.40
56538;DHT22;42435;53.292;6.000;2023-04-06T15:07:49;11.00;64.70
56538;DHT22;42435;53.292;6.000;2023-04-06T15:10:14;10.90;64.90
56538;DHT22;42435;53.292;6.000;2023-04-06T15:12:40;10.90;65.50
56538;DHT22;42435;53.292;6.000;2023-04-06T15:15:06;10.90;65.90
56538;DHT22;42435;53.292;6.000;2023-04-06T15:17:32;10.90;66.30
56538;DHT22;42435;53.292;6.000;2023-04-06T15:19:57;10.80;66.60
56538;DHT22;42435;53.292;6.000;2023-04-06T15:22:23;10.70;66.80
56538;DHT22;42435;53.292;6.000;2023-04-06T15:24:49;10.60;67.20
56538;DHT22;42435;53.292;6.000;2023-04-06T15:27:15;10.60;67.50
56538;DHT22;42435;53.292;6.000;2023-04-06T15:29:40;10.50;67.70
56538;DHT22;42435;53.292;6.000;2023-04-06T15:32:09;10.40;67.90
56538;DHT22;42435;53.292;6.000;2023-04-06T15:34:35;10.40;68.30
56538;DHT22;42435;53.292;6.000;2023-04-06T15:37:01;10.30;68.40
56538;DHT22;42435;53.292;6.000;2023-04-06T15:39:27;10.30;68.60
56538;DHT22;42435;53.292;6.000;2023-04-06T15:41:53;10.30;68.80